createdAt,value
2023-03-22T00:01:49.471Z,65.92
2023-03-22T00:04:19.194Z,65.74
2023-03-22T00:06:50.162Z,65.75
2023-03-22T00:09:18.093Z,65.99
2023-03-22T00:11:50.387Z,66.03
2023-03-22T00:14:18.171Z,66.12
2023-03-22T00:16:47.242Z,66.05
2023-03-22T00:19:18.699Z,66.03
2023-03-22T00:21:47.247Z,65.94
2023-03-22T00:24:20.625Z,65.83
2023-03-22T00:26:52.455Z,65.66
2023-03-22T00:29:23.643Z,65.61
2023-03-22T00:31:57.667Z,65.71
2023-03-22T00:34:32.188Z,65.59
2023-03-22T00:37:01.997Z,65.66
2023-03-22T00:39:31.962Z,65.84
2023-03-22T00:42:01.738Z,65.77
2023-03-22T00:44:55.254Z,65.75
2023-03-22T00:47:36.007Z,65.63
2023-03-22T00:50:13.404Z,65.57
2023-03-22T00:52:46.916Z,65.45
2023-03-22T00:55:19.734Z,65.52
2023-03-22T00:57:48.542Z,65.20
2023-03-22T01:00:20.266Z,64.74
2023-03-22T01:02:48.858Z,64.61
2023-03-22T01:05:25.661Z,64.31
2023-03-22T01:07:56.388Z,64.23
2023-03-22T01:10:34.522Z,64.43
2023-03-22T01:13:04.415Z,64.58
2023-03-22T01:15:34.306Z,64.21
2023-03-22T01:18:05.494Z,64.53
2023-03-22T01:20:46.806Z,64.51
2023-03-22T01:23:18.719Z,64.65
2023-03-22T01:25:50.292Z,64.74
2023-03-22T01:28:25.206Z,64.69
2023-03-22T01:31:01.633Z,64.66
2023-03-22T01:33:31.265Z,64.42
2023-03-22T01:35:58.960Z,64.32
2023-03-22T01:38:31.660Z,64.12
2023-03-22T01:41:03.568Z,64.18
2023-03-22T01:43:37.600Z,64.22
2023-03-22T01:46:06.429Z,64.28
2023-03-22T01:48:45.427Z,64.38
2023-03-22T01:51:19.494Z,64.26
2023-03-22T01:54:18.489Z,64.27
2023-03-22T01:56:50.478Z,64.53
2023-03-22T01:59:27.354Z,64.37
2023-03-22T02:02:07.713Z,64.46
2023-03-22T02:04:41.067Z,64.43
2023-03-22T02:07:15.014Z,64.58
2023-03-22T02:09:47.626Z,64.41
2023-03-22T02:12:18.641Z,64.63
2023-03-22T02:15:12.064Z,64.60
2023-03-22T02:18:11.880Z,64.69
2023-03-22T02:21:02.649Z,64.94
2023-03-22T02:23:54.888Z,64.98
2023-03-22T02:26:41.057Z,65.15
2023-03-22T02:29:25.873Z,65.24
2023-03-22T02:32:16.062Z,65.13
2023-03-22T02:35:05.624Z,65.50
2023-03-22T02:38:03.234Z,65.70
2023-03-22T02:40:45.337Z,65.88
2023-03-22T02:43:38.060Z,66.03
2023-03-22T02:46:12.851Z,66.63
2023-03-22T02:49:27.090Z,67.33
2023-03-22T02:51:59.874Z,67.89
2023-03-22T02:54:44.501Z,69.03
2023-03-22T02:57:20.649Z,68.95
2023-03-22T02:59:49.422Z,69.55
2023-03-22T03:02:17.993Z,69.56
2023-03-22T03:04:48.759Z,69.99
2023-03-22T03:07:21.347Z,70.11
2023-03-22T03:09:50.287Z,70.12
2023-03-22T03:12:25.787Z,70.26
2023-03-22T03:14:56.908Z,70.34
2023-03-22T03:17:57.817Z,70.35
2023-03-22T03:21:09.306Z,70.61
2023-03-22T03:23:53.771Z,70.57
2023-03-22T03:26:30.765Z,70.53
2023-03-22T03:29:42.211Z,70.65
2023-03-22T03:32:19.649Z,70.58
2023-03-22T03:34:52.549Z,70.59
2023-03-22T03:37:23.925Z,70.76
2023-03-22T03:40:04.883Z,70.41
2023-03-22T03:42:33.203Z,70.47
2023-03-22T03:45:00.439Z,70.40
2023-03-22T03:47:30.635Z,70.30
2023-03-22T03:49:59.047Z,70.86
2023-03-22T03:52:32.574Z,70.87
2023-03-22T03:55:02.725Z,71.20
2023-03-22T03:57:38.081Z,71.33
2023-03-22T04:00:09.749Z,71.58
2023-03-22T04:02:56.739Z,71.53
2023-03-22T04:05:40.964Z,71.86
2023-03-22T04:08:10.578Z,71.88
2023-03-22T04:10:40.565Z,72.51
2023-03-22T04:13:13.334Z,72.50
2023-03-22T04:15:42.224Z,72.48
2023-03-22T04:18:19.255Z,72.46
2023-03-22T04:20:49.632Z,72.64
2023-03-22T04:23:27.852Z,72.92
2023-03-22T04:25:59.693Z,72.97
2023-03-22T04:28:37.015Z,73.07
2023-03-22T04:31:09.436Z,73.06
2023-03-22T04:34:05.070Z,73.05
2023-03-22T04:37:08.317Z,72.84
2023-03-22T04:39:50.904Z,72.85
2023-03-22T04:42:35.754Z,72.89
2023-03-22T04:45:13.104Z,73.02
2023-03-22T04:47:42.947Z,72.91
2023-03-22T04:50:12.725Z,72.89
2023-03-22T04:52:50.897Z,73.10
2023-03-22T04:55:21.953Z,72.95
2023-03-22T04:57:54.160Z,72.73
2023-03-22T05:00:29.595Z,72.36
2023-03-22T05:02:58.998Z,71.65
2023-03-22T05:05:55.451Z,71.24
2023-03-22T05:08:25.919Z,71.34
2023-03-22T05:10:55.581Z,71.17
2023-03-22T05:13:26.865Z,71.16
2023-03-22T05:16:06.797Z,71.33
2023-03-22T05:18:44.886Z,71.31
2023-03-22T05:21:15.107Z,71.40
2023-03-22T05:23:51.403Z,71.53
2023-03-22T05:26:25.730Z,71.60
2023-03-22T05:28:57.869Z,71.59
2023-03-22T05:31:41.831Z,71.78
2023-03-22T05:34:14.820Z,71.84
2023-03-22T05:36:45.979Z,71.72
2023-03-22T05:39:30.246Z,71.91
2023-03-22T05:42:01.163Z,71.94
2023-03-22T05:44:28.609Z,71.79
2023-03-22T05:47:08.859Z,71.84
2023-03-22T05:49:58.095Z,72.10
2023-03-22T05:52:27.331Z,72.19
2023-03-22T05:55:17.143Z,71.98
2023-03-22T05:57:47.259Z,71.86
2023-03-22T06:00:19.937Z,71.59
2023-03-22T06:03:21.222Z,71.62
2023-03-22T06:06:02.041Z,71.45
2023-03-22T06:08:39.924Z,71.47
2023-03-22T06:11:13.713Z,70.96
2023-03-22T06:13:42.583Z,70.99
2023-03-22T06:16:12.032Z,70.99
2023-03-22T06:18:41.642Z,70.87
2023-03-22T06:21:17.384Z,70.37
2023-03-22T06:23:47.213Z,69.98
2023-03-22T06:26:19.452Z,69.69
2023-03-22T06:28:56.945Z,69.76
2023-03-22T06:31:26.966Z,69.74
2023-03-22T06:34:01.239Z,69.23
2023-03-22T06:36:46.652Z,69.09
2023-03-22T06:39:26.444Z,68.82
2023-03-22T06:41:55.372Z,68.27
2023-03-22T06:44:28.966Z,68.12
2023-03-22T06:47:11.339Z,67.57
2023-03-22T06:49:47.965Z,67.19
2023-03-22T06:52:27.369Z,67.19
2023-03-22T06:55:01.571Z,67.28
2023-03-22T06:57:38.513Z,67.52
2023-03-22T07:00:10.633Z,67.82
2023-03-22T07:02:41.629Z,67.90
2023-03-22T07:05:41.051Z,67.93
2023-03-22T07:08:10.878Z,67.74
2023-03-22T07:10:50.932Z,67.56
2023-03-22T07:13:21.957Z,67.14
2023-03-22T07:15:51.923Z,66.73
2023-03-22T07:18:41.447Z,66.48
2023-03-22T07:21:15.256Z,66.12
2023-03-22T07:23:49.856Z,65.97
2023-03-22T07:26:20.190Z,65.92
2023-03-22T07:28:54.040Z,65.63
2023-03-22T07:31:46.342Z,65.19
2023-03-22T07:34:27.179Z,65.05
2023-03-22T07:37:17.232Z,64.49
2023-03-22T07:39:58.152Z,64.50
2023-03-22T07:42:30.849Z,64.19
2023-03-22T07:45:22.976Z,63.30
2023-03-22T07:48:35.995Z,62.85
2023-03-22T07:51:40.158Z,62.55
2023-03-22T07:54:12.643Z,62.06
2023-03-22T07:56:45.172Z,61.54
2023-03-22T07:59:20.543Z,61.32
2023-03-22T08:01:53.249Z,61.38
2023-03-22T08:04:31.448Z,60.85
2023-03-22T08:07:14.146Z,60.19
2023-03-22T08:09:49.211Z,59.53
2023-03-22T08:12:23.272Z,59.01
2023-03-22T08:15:23.429Z,58.75
2023-03-22T08:18:12.119Z,58.75
2023-03-22T08:20:43.968Z,59.03
2023-03-22T08:23:40.486Z,58.72
2023-03-22T08:26:50.143Z,58.76
2023-03-22T08:29:41.102Z,59.22
2023-03-22T08:32:17.550Z,59.34
2023-03-22T08:34:49.158Z,59.22
2023-03-22T08:37:26.947Z,58.96
2023-03-22T08:39:56.845Z,58.88
2023-03-22T08:42:38.612Z,58.89
2023-03-22T08:45:12.613Z,58.83
2023-03-22T08:47:52.320Z,58.46
2023-03-22T08:50:24.294Z,58.10
2023-03-22T08:53:02.956Z,57.43
2023-03-22T08:55:44.357Z,57.46
2023-03-22T08:58:26.443Z,57.67
2023-03-22T09:01:26.510Z,57.69
2023-03-22T09:04:20.199Z,57.56
2023-03-22T09:06:55.523Z,57.50
2023-03-22T09:09:26.433Z,57.43
2023-03-22T09:11:54.600Z,57.07
2023-03-22T09:14:26.462Z,57.24
2023-03-22T09:17:00.800Z,57.33
2023-03-22T09:19:29.414Z,57.00
2023-03-22T09:21:58.173Z,56.52
2023-03-22T09:24:42.186Z,56.35
2023-03-22T09:27:12.396Z,56.19
2023-03-22T09:29:41.842Z,56.01
2023-03-22T09:32:17.500Z,55.95
2023-03-22T09:34:55.071Z,55.59
2023-03-22T09:37:30.377Z,55.43
2023-03-22T09:40:00.501Z,55.62
2023-03-22T09:42:42.554Z,55.48
2023-03-22T09:45:17.863Z,55.38
2023-03-22T09:47:50.715Z,55.47
2023-03-22T09:50:32.362Z,55.08
2023-03-22T09:53:02.701Z,54.90
2023-03-22T09:55:39.072Z,55.05
2023-03-22T09:58:25.890Z,55.09
2023-03-22T10:01:05.859Z,55.02
2023-03-22T10:04:03.571Z,54.48
2023-03-22T10:07:12.908Z,54.28
2023-03-22T10:10:17.920Z,54.71
2023-03-22T10:13:00.503Z,54.98
2023-03-22T10:15:38.894Z,54.93
2023-03-22T10:18:09.491Z,55.17
2023-03-22T10:21:11.510Z,54.99
2023-03-22T10:23:47.214Z,54.53
2023-03-22T10:27:43.435Z,54.40
2023-03-22T10:33:14.012Z,54.41
2023-03-22T10:35:53.225Z,53.82
2023-03-22T10:38:27.211Z,53.15
2023-03-22T10:41:06.351Z,52.47
2023-03-22T10:43:41.061Z,52.60
2023-03-22T10:46:17.308Z,52.53
2023-03-22T10:48:49.136Z,52.37
2023-03-22T10:51:36.538Z,51.69
2023-03-22T10:54:12.051Z,51.88
2023-03-22T10:56:41.528Z,51.68
2023-03-22T10:59:53.155Z,51.01
2023-03-22T11:02:31.318Z,50.64
2023-03-22T11:05:03.062Z,50.48
2023-03-22T11:07:43.715Z,49.76
2023-03-22T11:10:15.679Z,50.44
2023-03-22T11:13:10.857Z,51.11
2023-03-22T11:15:49.558Z,50.99
2023-03-22T11:18:20.731Z,51.01
2023-03-22T11:20:58.348Z,50.78
2023-03-22T11:23:32.082Z,50.75
2023-03-22T11:26:08.181Z,51.27
2023-03-22T11:34:48.259Z,51.12
2023-03-22T11:37:19.671Z,51.14
2023-03-22T11:40:02.345Z,50.85
2023-03-22T11:42:37.099Z,50.71
2023-03-22T11:45:12.417Z,50.28
2023-03-22T11:47:54.830Z,50.50
2023-03-22T11:50:33.308Z,50.71
2023-03-22T11:53:07.552Z,51.13
2023-03-22T11:55:40.387Z,51.16
2023-03-22T11:58:39.368Z,51.31
2023-03-22T12:01:13.117Z,51.64
2023-03-22T12:03:44.129Z,51.80
2023-03-22T12:06:21.918Z,52.00
2023-03-22T12:09:07.107Z,52.17
2023-03-22T12:11:53.434Z,52.25
2023-03-22T12:14:54.551Z,52.39
2023-03-22T12:17:36.380Z,52.09
2023-03-22T12:20:51.524Z,52.01
2023-03-22T12:23:51.947Z,52.25
2023-03-22T12:26:30.382Z,52.23
2023-03-22T12:29:06.802Z,51.95
2023-03-22T12:31:52.859Z,51.49
2023-03-22T12:34:32.463Z,51.53
2023-03-22T12:37:10.967Z,51.46
2023-03-22T12:40:01.223Z,51.31
2023-03-22T12:43:08.019Z,51.32
2023-03-22T12:45:53.383Z,51.06
2023-03-22T12:48:35.628Z,50.78
2023-03-22T12:51:13.904Z,50.36
2023-03-22T12:53:53.917Z,49.91
2023-03-22T12:56:44.062Z,49.76
2023-03-22T12:59:29.042Z,49.60
2023-03-22T13:02:10.209Z,49.37
2023-03-22T13:04:53.836Z,48.95
2023-03-22T13:07:36.114Z,48.71
2023-03-22T13:10:32.700Z,48.31
2023-03-22T13:13:24.549Z,48.14
2023-03-22T13:15:59.873Z,48.04
2023-03-22T13:18:54.257Z,46.87
2023-03-22T13:21:29.886Z,45.76
2023-03-22T13:24:10.607Z,45.51
2023-03-22T13:27:20.194Z,45.47
2023-03-22T13:29:54.304Z,45.77
2023-03-22T13:32:33.571Z,45.98
2023-03-22T13:35:23.949Z,46.03
2023-03-22T13:38:29.206Z,46.33
2023-03-22T13:41:28.287Z,46.21
2023-03-22T13:44:20.513Z,45.70
2023-03-22T13:47:02.010Z,44.93
2023-03-22T13:49:55.213Z,44.84
2023-03-22T13:52:33.717Z,44.68
2023-03-22T13:55:04.905Z,44.41
2023-03-22T13:57:50.352Z,44.19
2023-03-22T14:00:41.558Z,43.51
2023-03-22T14:03:23.296Z,43.72
2023-03-22T14:06:01.009Z,43.88
2023-03-22T14:08:40.233Z,43.81
2023-03-22T14:11:46.519Z,43.71
2023-03-22T14:14:29.125Z,43.55
2023-03-22T14:17:30.039Z,43.85
2023-03-22T14:20:00.178Z,44.26
